Time;durP1;ratioP1;P1;durP2;ratioP2;P2;SDS_P1;SDS_P2;PMS_P1;PMS_P2;Temp;Humidity;BMP_temperature;BMP_pressure;BME280_temperature;BME280_humidity;BME280_pressure;Samples;Min_cycle;Max_cycle;Signal;HPM_P1;HPM_P2
2021/05/22 00:02:18;;;;;;;;;;;;;;;;;;5098393;28;31490;-77
2021/05/22 00:04:44;;;;;;;;;;;;;;;;;;5100169;28;33368;-77
2021/05/22 00:07:09;;;;;;;;;;;;;;;;;;5100666;28;32598;-75
2021/05/22 00:09:35;;;;;;;;;;;;;;;;;;5100358;28;32555;-80
2021/05/22 00:12:00;;;;;;;;;;;;;;;;;;5100337;28;31758;-81
2021/05/22 00:14:26;;;;;;;;;;;;;;;;;;5100450;28;33282;-81
2021/05/22 00:16:51;;;;;;;;;;;;;;;;;;5096648;28;32804;-81
2021/05/22 00:19:17;;;;;;;;;;;;;;;;;;5100135;27;33068;-81
2021/05/22 00:21:42;;;;;;;;;;;;;;;;;;5095722;28;38765;-81
2021/05/22 00:24:08;;;;;;;;;;;;;;;;;;5100225;28;33328;-81
2021/05/22 00:26:33;;;;;;;;;;;;;;;;;;5101314;27;32861;-80
2021/05/22 00:28:59;;;;;;;;;;;;;;;;;;5100044;28;33394;-72
2021/05/22 00:31:24;;;;;;;;;;;;;;;;;;5100724;28;32394;-72
2021/05/22 00:33:50;;;;;;;;;;;;;;;;;;5094560;28;32429;-73
2021/05/22 00:36:15;;;;;;;;;;;;;;;;;;5079414;28;33473;-73
2021/05/22 00:38:41;;;;;;;;;;;;;;;;;;5077283;28;32533;-72
2021/05/22 00:41:06;;;;;;;;;;;;;;;;;;5079103;28;32530;-72
2021/05/22 00:43:32;;;;;;;;;;;;;;;;;;5080175;28;32344;-72
2021/05/22 00:45:57;;;;;;;;;;;;;;;;;;5080141;28;33455;-73
2021/05/22 00:48:23;;;;;;;;;;;;;;;;;;5079321;28;30984;-73
2021/05/22 00:50:50;;;;;;;;;;;;;;;;;;5079921;28;31880;-72
2021/05/22 00:53:16;;;;;;;;;;;;;;;;;;5078124;28;32102;-72
2021/05/22 00:55:41;;;;;;;;;;;;;;;;;;5077513;28;41101;-74
2021/05/22 00:58:07;;;;;;;;;;;;;;;;;;5076503;28;33447;-74
2021/05/22 01:00:32;;;;;;;;;;;;;;;;;;5078284;28;38690;-75
2021/05/22 01:02:58;;;;;;;;;;;;;;;;;;5079330;28;32240;-73
2021/05/22 01:05:23;;;;;;;;;;;;;;;;;;5078900;28;33263;-73
2021/05/22 01:07:49;;;;;;;;;;;;;;;;;;5077360;28;33096;-76
2021/05/22 01:10:14;;;;;;;;;;;;;;;;;;5078824;28;32756;-76
2021/05/22 01:12:40;;;;;;;;;;;;;;;;;;5079448;28;30273;-74
2021/05/22 01:15:06;;;;;;;;;;;;;;;;;;5082299;28;32840;-73
2021/05/22 01:17:31;;;;;;;;;;;;;;;;;;5081724;28;33076;-77
2021/05/22 01:19:57;;;;;;;;;;;;;;;;;;5083647;28;32460;-76
2021/05/22 01:22:22;;;;;;;;;;;;;;;;;;5082845;28;32331;-73
2021/05/22 01:24:48;;;;;;;;;;;;;;;;;;5082054;28;32900;-76
2021/05/22 01:27:15;;;;;;;;;;;;;;;;;;5082355;28;32061;-77
2021/05/22 01:29:40;;;;;;;;;;;;;;;;;;5084013;28;31880;-75
2021/05/22 01:32:07;;;;;;;;;;;;;;;;;;5087098;28;32411;-74
2021/05/22 01:34:33;;;;;;;;;;;;;;;;;;5099109;28;41567;-76
2021/05/22 01:36:58;;;;;;;;;;;;;;;;;;5103056;28;32770;-73
2021/05/22 01:39:24;;;;;;;;;;;;;;;;;;5103444;27;31346;-80
2021/05/22 01:41:49;;;;;;;;;;;;;;;;;;5103812;28;32377;-81
2021/05/22 01:44:14;;;;;;;;;;;;;;;;;;5103384;27;33450;-81
2021/05/22 01:46:42;;;;;;;;;;;;;;;;;;5102876;28;32590;-80
2021/05/22 01:49:07;;;;;;;;;;;;;;;;;;5102294;28;31320;-80
2021/05/22 01:51:33;;;;;;;;;;;;;;;;;;5096090;28;32302;-81
2021/05/22 01:54:07;;;;;;;;;;;;;;;;;;5097528;28;41894;-81
2021/05/22 01:56:32;;;;;;;;;;;;;;;;;;5093209;28;39890;-74
2021/05/22 01:58:58;;;;;;;;;;;;;;;;;;5098516;28;40294;-75
2021/05/22 02:01:25;;;;;;;;;;;;;;;;;;5101726;28;33252;-73
2021/05/22 02:03:51;;;;;;;;;;;;;;;;;;5101969;28;33827;-72
2021/05/22 02:06:16;;;;;;;;;;;;;;;;;;5101808;28;32476;-72
2021/05/22 02:08:42;;;;;;;;;;;;;;;;;;5102629;28;32689;-72
2021/05/22 02:11:07;;;;;;;;;;;;;;;;;;5093594;28;40253;-73
2021/05/22 02:13:33;;;;;;;;;;;;;;;;;;5096142;28;41142;-76
2021/05/22 02:15:58;;;;;;;;;;;;;;;;;;5101298;28;32592;-75
2021/05/22 02:18:24;;;;;;;;;;;;;;;;;;5082682;28;30411;-75
2021/05/22 02:20:49;;;;;;;;;;;;;;;;;;5101458;28;32247;-76
2021/05/22 02:23:15;;;;;;;;;;;;;;;;;;5101819;28;33806;-79
2021/05/22 02:25:40;;;;;;;;;;;;;;;;;;5102575;27;32619;-78
2021/05/22 02:28:05;;;;;;;;;;;;;;;;;;5100817;27;31404;-77
2021/05/22 02:30:31;;;;;;;;;;;;;;;;;;5098332;27;42389;-78
2021/05/22 02:32:56;;;;;;;;;;;;;;;;;;5099658;28;32792;-77
2021/05/22 02:35:22;;;;;;;;;;;;;;;;;;5083971;28;33078;-79
2021/05/22 02:37:47;;;;;;;;;;;;;;;;;;5080929;28;31768;-77
2021/05/22 02:40:13;;;;;;;;;;;;;;;;;;5081744;28;32356;-78
2021/05/22 02:42:38;;;;;;;;;;;;;;;;;;5082258;28;32829;-78
2021/05/22 02:45:04;;;;;;;;;;;;;;;;;;5081080;28;33060;-79
2021/05/22 02:47:29;;;;;;;;;;;;;;;;;;5080111;28;31504;-78
2021/05/22 02:49:55;;;;;;;;;;;;;;;;;;5081182;28;32293;-75
2021/05/22 02:52:20;;;;;;;;;;;;;;;;;;5075117;28;33783;-79
2021/05/22 02:54:46;;;;;;;;;;;;;;;;;;5081751;28;34618;-74
2021/05/22 02:57:11;;;;;;;;;;;;;;;;;;5081481;28;31875;-73
2021/05/22 02:59:37;;;;;;;;;;;;;;;;;;5080761;28;32354;-72
2021/05/22 03:02:02;;;;;;;;;;;;;;;;;;5081939;28;33897;-73
2021/05/22 03:04:27;;;;;;;;;;;;;;;;;;5080963;28;32504;-76
2021/05/22 03:06:53;;;;;;;;;;;;;;;;;;5075316;28;31877;-80
2021/05/22 03:09:18;;;;;;;;;;;;;;;;;;5071651;28;40577;-77
2021/05/22 03:11:44;;;;;;;;;;;;;;;;;;5071575;28;41117;-77
2021/05/22 03:14:10;;;;;;;;;;;;;;;;;;5071073;28;40698;-77
2021/05/22 03:16:36;;;;;;;;;;;;;;;;;;5072008;28;39095;-73
2021/05/22 03:19:01;;;;;;;;;;;;;;;;;;5071513;28;40651;-72
2021/05/22 03:21:27;;;;;;;;;;;;;;;;;;5071825;28;41108;-73
2021/05/22 03:23:52;;;;;;;;;;;;;;;;;;5071742;28;39824;-73
2021/05/22 03:26:17;;;;;;;;;;;;;;;;;;5070211;28;39101;-74
2021/05/22 03:28:43;;;;;;;;;;;;;;;;;;5071304;28;44056;-77
2021/05/22 03:31:09;;;;;;;;;;;;;;;;;;5072130;28;42071;-78
2021/05/22 03:33:34;;;;;;;;;;;;;;;;;;5074299;28;41110;-79
2021/05/22 03:36:00;;;;;;;;;;;;;;;;;;5091516;28;41402;-79
2021/05/22 03:38:25;;;;;;;;;;;;;;;;;;5092383;28;41181;-74
2021/05/22 03:40:52;;;;;;;;;;;;;;;;;;5091333;28;42722;-76
2021/05/22 03:43:17;;;;;;;;;;;;;;;;;;5093745;28;39792;-75
2021/05/22 03:45:43;;;;;;;;;;;;;;;;;;5092440;28;42866;-75
2021/05/22 03:48:08;;;;;;;;;;;;;;;;;;5098428;28;32053;-79
2021/05/22 03:50:34;;;;;;;;;;;;;;;;;;5091054;28;42264;-78
2021/05/22 03:52:59;;;;;;;;;;;;;;;;;;5091180;28;40668;-79
2021/05/22 03:55:25;;;;;;;;;;;;;;;;;;5100153;28;32779;-75
2021/05/22 03:57:50;;;;;;;;;;;;;;;;;;5100237;28;32877;-78
2021/05/22 04:00:16;;;;;;;;;;;;;;;;;;5100422;28;33670;-72
2021/05/22 04:02:41;;;;;;;;;;;;;;;;;;5099328;28;32531;-72
2021/05/22 04:05:07;;;;;;;;;;;;;;;;;;5098039;28;40759;-75
2021/05/22 04:07:32;;;;;;;;;;;;;;;;;;5098687;28;32317;-72
2021/05/22 04:09:58;;;;;;;;;;;;;;;;;;5099898;28;33646;-73
2021/05/22 04:12:23;;;;;;;;;;;;;;;;;;5099871;28;32675;-72
2021/05/22 04:14:48;;;;;;;;;;;;;;;;;;5100371;28;32421;-74
2021/05/22 04:17:14;;;;;;;;;;;;;;;;;;5100892;28;32383;-72
2021/05/22 04:19:39;;;;;;;;;;;;;;;;;;5100559;28;33850;-72
2021/05/22 04:22:05;;;;;;;;;;;;;;;;;;5097663;28;32298;-72
2021/05/22 04:24:30;;;;;;;;;;;;;;;;;;5089205;28;40677;-72
2021/05/22 04:26:56;;;;;;;;;;;;;;;;;;5093321;28;40788;-79
2021/05/22 04:29:21;;;;;;;;;;;;;;;;;;5092766;28;40879;-79
2021/05/22 04:31:47;;;;;;;;;;;;;;;;;;5101071;28;32582;-76
2021/05/22 04:34:12;;;;;;;;;;;;;;;;;;5092733;28;31704;-75
2021/05/22 04:36:38;;;;;;;;;;;;;;;;;;5080690;28;32555;-79
2021/05/22 04:39:04;;;;;;;;;;;;;;;;;;5079503;28;33025;-76
2021/05/22 04:41:29;;;;;;;;;;;;;;;;;;5075628;28;32393;-79
2021/05/22 04:43:55;;;;;;;;;;;;;;;;;;5069473;28;39244;-73
2021/05/22 04:46:20;;;;;;;;;;;;;;;;;;5069159;28;40478;-75
2021/05/22 04:48:45;;;;;;;;;;;;;;;;;;5069352;28;44886;-73
2021/05/22 04:51:12;;;;;;;;;;;;;;;;;;5069795;28;41996;-72
2021/05/22 04:53:37;;;;;;;;;;;;;;;;;;5077052;28;38966;-74
2021/05/22 04:56:03;;;;;;;;;;;;;;;;;;5079203;28;32269;-72
2021/05/22 04:58:28;;;;;;;;;;;;;;;;;;5080035;28;33810;-72
2021/05/22 05:00:54;;;;;;;;;;;;;;;;;;5083665;28;32335;-73
2021/05/22 05:03:19;;;;;;;;;;;;;;;;;;5077928;28;44388;-74
2021/05/22 05:05:45;;;;;;;;;;;;;;;;;;5069104;28;42376;-74
2021/05/22 05:08:11;;;;;;;;;;;;;;;;;;5068363;28;41180;-76
2021/05/22 05:10:36;;;;;;;;;;;;;;;;;;5066776;28;42452;-76
2021/05/22 05:13:01;;;;;;;;;;;;;;;;;;5066860;28;43050;-73
2021/05/22 05:15:27;;;;;;;;;;;;;;;;;;5067608;28;43047;-75
2021/05/22 05:17:52;;;;;;;;;;;;;;;;;;5068406;28;45418;-73
2021/05/22 05:20:18;;;;;;;;;;;;;;;;;;5069090;28;41623;-76
2021/05/22 05:22:43;;;;;;;;;;;;;;;;;;5066661;28;40469;-75
2021/05/22 05:25:09;;;;;;;;;;;;;;;;;;5068588;28;44759;-74
2021/05/22 05:27:34;;;;;;;;;;;;;;;;;;5067814;28;42633;-73
2021/05/22 05:30:00;;;;;;;;;;;;;;;;;;5076380;28;45223;-75
2021/05/22 05:32:25;;;;;;;;;;;;;;;;;;5077003;28;42268;-78
2021/05/22 05:34:51;;;;;;;;;;;;;;;;;;5081473;28;41776;-82
2021/05/22 05:37:16;;;;;;;;;;;;;;;;;;5085857;27;32897;-81
2021/05/22 05:39:42;;;;;;;;;;;;;;;;;;5072713;28;43023;-81
2021/05/22 05:42:07;;;;;;;;;;;;;;;;;;5071982;28;43048;-81
2021/05/22 05:44:32;;;;;;;;;;;;;;;;;;5069127;28;44600;-81
2021/05/22 05:46:58;;;;;;;;;;;;;;;;;;5068051;28;47263;-82
2021/05/22 05:49:28;;;;;;;;;;;;;;;;;;5066137;28;43059;-80
2021/05/22 05:51:53;;;;;;;;;;;;;;;;;;5068785;28;39215;-80
2021/05/22 05:54:19;;;;;;;;;;;;;;;;;;5070336;28;47542;-78
2021/05/22 05:56:44;;;;;;;;;;;;;;;;;;5076294;28;47748;-78
2021/05/22 05:59:10;;;;;;;;;;;;;;;;;;5078137;28;44949;-81
2021/05/22 06:01:35;;;;;;;;;;;;;;;;;;5070360;28;42846;-80
2021/05/22 06:04:01;;;;;;;;;;;;;;;;;;5070895;28;45693;-82
2021/05/22 06:06:26;;;;;;;;;;;;;;;;;;5069935;28;45215;-72
2021/05/22 06:08:52;;;;;;;;;;;;;;;;;;5068853;28;45190;-78
2021/05/22 06:11:19;;;;;;;;;;;;;;;;;;5070554;28;43852;-79
2021/05/22 06:13:45;;;;;;;;;;;;;;;;;;5070460;28;44525;-75
2021/05/22 06:16:56;;;;;;;;;;;;;;;;;;5070826;28;43384;-76
2021/05/22 06:18:56;;;;;;;;;;;;;;;;;;5067787;28;43888;-73
2021/05/22 06:21:22;;;;;;;;;;;;;;;;;;5068710;28;41911;-73
2021/05/22 06:23:48;;;;;;;;;;;;;;;;;;5067853;28;48116;-73
2021/05/22 06:26:13;;;;;;;;;;;;;;;;;;5068135;28;44172;-78
2021/05/22 06:28:39;;;;;;;;;;;;;;;;;;5070137;28;46751;-74
2021/05/22 06:31:05;;;;;;;;;;;;;;;;;;5068564;28;39071;-73
2021/05/22 06:33:30;;;;;;;;;;;;;;;;;;5072220;28;39841;-73
2021/05/22 06:35:56;;;;;;;;;;;;;;;;;;5087919;28;44082;-73
2021/05/22 06:38:21;;;;;;;;;;;;;;;;;;5089348;28;42934;-72
2021/05/22 06:40:47;;;;;;;;;;;;;;;;;;5090575;28;42508;-78
2021/05/22 06:43:12;;;;;;;;;;;;;;;;;;5089367;28;43822;-78
2021/05/22 06:45:45;;;;;;;;;;;;;;;;;;5090548;27;45060;-74
2021/05/22 06:48:11;;;;;;;;;;;;;;;;;;5091127;27;44174;-74
2021/05/22 06:50:36;;;;;;;;;;;;;;;;;;5093685;28;40123;-73
2021/05/22 06:53:02;;;;;;;;;;;;;;;;;;5101423;28;32369;-74
2021/05/22 06:55:27;;;;;;;;;;;;;;;;;;5101305;28;34280;-73
2021/05/22 06:57:53;;;;;;;;;;;;;;;;;;5099875;27;32503;-73
2021/05/22 07:00:18;;;;;;;;;;;;;;;;;;5089337;28;39098;-73
2021/05/22 07:02:44;;;;;;;;;;;;;;;;;;5088249;27;42103;-74
2021/05/22 07:05:09;;;;;;;;;;;;;;;;;;5087865;28;44665;-77
2021/05/22 07:07:36;;;;;;;;;;;;;;;;;;5089617;28;43000;-74
2021/05/22 07:10:02;;;;;;;;;;;;;;;;;;5095612;28;42298;-73
2021/05/22 07:12:27;;;;;;;;;;;;;;;;;;5094290;28;32164;-76
2021/05/22 07:14:53;;;;;;;;;;;;;;;;;;5081662;28;46033;-74
2021/05/22 07:17:18;;;;;;;;;;;;;;;;;;5088221;28;33252;-75
2021/05/22 07:19:44;;;;;;;;;;;;;;;;;;5070419;28;44770;-75
2021/05/22 07:22:09;;;;;;;;;;;;;;;;;;5065902;28;45891;-75
2021/05/22 07:24:35;;;;;;;;;;;;;;;;;;5064152;28;45887;-75
2021/05/22 07:27:00;;;;;;;;;;;;;;;;;;5063478;28;45013;-76
2021/05/22 07:29:27;;;;;;;;;;;;;;;;;;5063111;28;43229;-76
2021/05/22 07:31:52;;;;;;;;;;;;;;;;;;5065564;28;47502;-76
2021/05/22 07:34:18;;;;;;;;;;;;;;;;;;5074452;28;46049;-76
2021/05/22 07:36:43;;;;;;;;;;;;;;;;;;5085182;28;41255;-76
2021/05/22 07:39:11;;;;;;;;;;;;;;;;;;5085093;28;45592;-75
2021/05/22 07:41:37;;;;;;;;;;;;;;;;;;5085572;28;47887;-76
2021/05/22 07:44:02;;;;;;;;;;;;;;;;;;5086360;28;46396;-76
2021/05/22 07:46:27;;;;;;;;;;;;;;;;;;5085173;27;48521;-75
2021/05/22 07:48:53;;;;;;;;;;;;;;;;;;5085421;28;44077;-76
2021/05/22 07:51:18;;;;;;;;;;;;;;;;;;5085841;27;49617;-73
2021/05/22 07:53:44;;;;;;;;;;;;;;;;;;5083737;28;48129;-74
2021/05/22 07:56:10;;;;;;;;;;;;;;;;;;5085116;27;46954;-75
2021/05/22 07:58:35;;;;;;;;;;;;;;;;;;5085229;28;43792;-75
2021/05/22 08:01:00;;;;;;;;;;;;;;;;;;5085786;28;47719;-76
2021/05/22 08:03:26;;;;;;;;;;;;;;;;;;5084565;28;48893;-76
2021/05/22 08:05:51;;;;;;;;;;;;;;;;;;5081883;28;45344;-77
2021/05/22 08:08:17;;;;;;;;;;;;;;;;;;5077307;28;46279;-76
2021/05/22 08:10:42;;;;;;;;;;;;;;;;;;5079000;28;48258;-77
2021/05/22 08:13:09;;;;;;;;;;;;;;;;;;5075326;28;48720;-77
2021/05/22 08:15:35;;;;;;;;;;;;;;;;;;5084845;27;46642;-77
2021/05/22 08:18:00;;;;;;;;;;;;;;;;;;5082485;28;44915;-76
2021/05/22 08:20:26;;;;;;;;;;;;;;;;;;5075123;28;45771;-75
2021/05/22 08:22:51;;;;;;;;;;;;;;;;;;5068999;28;48925;-75
2021/05/22 08:25:17;;;;;;;;;;;;;;;;;;5069894;28;47034;-72
2021/05/22 08:27:42;;;;;;;;;;;;;;;;;;5074370;28;45403;-75
2021/05/22 08:30:08;;;;;;;;;;;;;;;;;;5076857;28;48616;-75
2021/05/22 08:32:33;;;;;;;;;;;;;;;;;;5062081;28;48502;-74
2021/05/22 08:34:59;;;;;;;;;;;;;;;;;;5065251;28;47338;-76
2021/05/22 08:37:24;;;;;;;;;;;;;;;;;;5079515;28;43922;-75
2021/05/22 08:39:50;;;;;;;;;;;;;;;;;;5079494;28;48647;-75
2021/05/22 08:42:17;;;;;;;;;;;;;;;;;;5084416;28;40269;-76
2021/05/22 08:44:42;;;;;;;;;;;;;;;;;;5084961;28;45336;-75
2021/05/22 08:47:08;;;;;;;;;;;;;;;;;;5083719;28;46339;-76
2021/05/22 08:49:40;;;;;;;;;;;;;;;;;;5082536;28;47110;-73
2021/05/22 08:52:06;;;;;;;;;;;;;;;;;;5082800;28;47648;-74
2021/05/22 08:54:31;;;;;;;;;;;;;;;;;;5082787;28;44326;-75
2021/05/22 08:56:57;;;;;;;;;;;;;;;;;;5080685;28;43785;-74
2021/05/22 08:59:22;;;;;;;;;;;;;;;;;;5082219;28;48987;-74
2021/05/22 09:01:48;;;;;;;;;;;;;;;;;;5083103;28;47683;-74
2021/05/22 09:04:13;;;;;;;;;;;;;;;;;;5084421;28;46070;-74
2021/05/22 09:06:39;;;;;;;;;;;;;;;;;;5084292;28;43478;-74
2021/05/22 09:09:04;;;;;;;;;;;;;;;;;;5085141;27;49222;-75
2021/05/22 09:11:31;;;;;;;;;;;;;;;;;;5098799;28;32862;-74
2021/05/22 09:13:56;;;;;;;;;;;;;;;;;;5091466;27;32376;-74
2021/05/22 09:16:22;;;;;;;;;;;;;;;;;;5084382;28;44736;-75
2021/05/22 09:18:47;;;;;;;;;;;;;;;;;;5083752;28;47933;-74
2021/05/22 09:21:13;;;;;;;;;;;;;;;;;;5079503;28;49923;-79
2021/05/22 09:23:43;;;;;;;;;;;;;;;;;;5073561;28;44648;-74
2021/05/22 09:26:14;;;;;;;;;;;;;;;;;;5079657;28;43755;-76
2021/05/22 09:28:39;;;;;;;;;;;;;;;;;;5072990;28;44234;-76
2021/05/22 09:31:05;;;;;;;;;;;;;;;;;;5068933;28;45652;-74
2021/05/22 09:33:30;;;;;;;;;;;;;;;;;;5075240;28;48248;-74
2021/05/22 09:35:56;;;;;;;;;;;;;;;;;;5074276;28;44052;-75
2021/05/22 09:38:21;;;;;;;;;;;;;;;;;;5075380;28;45720;-76
2021/05/22 09:40:47;;;;;;;;;;;;;;;;;;5079193;28;47600;-74
2021/05/22 09:43:13;;;;;;;;;;;;;;;;;;5082008;28;45610;-76
2021/05/22 09:45:39;;;;;;;;;;;;;;;;;;5080548;28;44388;-75
2021/05/22 09:48:04;;;;;;;;;;;;;;;;;;5073894;28;49720;-76
2021/05/22 09:50:30;;;;;;;;;;;;;;;;;;5066252;28;45800;-75
2021/05/22 09:52:55;;;;;;;;;;;;;;;;;;5077850;28;44863;-75
2021/05/22 09:55:22;;;;;;;;;;;;;;;;;;5087675;28;43096;-75
2021/05/22 09:57:49;;;;;;;;;;;;;;;;;;5088092;28;46487;-75
2021/05/22 10:00:18;;;;;;;;;;;;;;;;;;5087129;28;47847;-74
2021/05/22 10:02:43;;;;;;;;;;;;;;;;;;5088915;27;46619;-74
2021/05/22 10:05:09;;;;;;;;;;;;;;;;;;5087614;28;45569;-75
2021/05/22 10:07:34;;;;;;;;;;;;;;;;;;5086555;28;43348;-76
2021/05/22 10:10:01;;;;;;;;;;;;;;;;;;5087034;28;49005;-76
2021/05/22 10:12:26;;;;;;;;;;;;;;;;;;5085924;28;44322;-77
2021/05/22 10:14:52;;;;;;;;;;;;;;;;;;5084885;28;46411;-77
2021/05/22 10:17:17;;;;;;;;;;;;;;;;;;5081357;28;47046;-76
2021/05/22 10:19:43;;;;;;;;;;;;;;;;;;5076054;27;47724;-77
2021/05/22 10:22:08;;;;;;;;;;;;;;;;;;5066247;28;44772;-75
2021/05/22 10:24:34;;;;;;;;;;;;;;;;;;5065761;28;43722;-78
2021/05/22 10:26:59;;;;;;;;;;;;;;;;;;5064000;28;49048;-77
2021/05/22 10:29:24;;;;;;;;;;;;;;;;;;5077917;28;47725;-77
2021/05/22 10:31:50;;;;;;;;;;;;;;;;;;5085562;28;47146;-77
2021/05/22 10:34:15;;;;;;;;;;;;;;;;;;5085370;28;46278;-76
2021/05/22 10:36:41;;;;;;;;;;;;;;;;;;5086193;28;47210;-77
2021/05/22 10:39:06;;;;;;;;;;;;;;;;;;5087819;28;44283;-77
2021/05/22 10:41:32;;;;;;;;;;;;;;;;;;5085722;28;46294;-77
2021/05/22 10:44:00;;;;;;;;;;;;;;;;;;5084648;28;48168;-77
2021/05/22 10:46:25;;;;;;;;;;;;;;;;;;5083409;28;47991;-76
2021/05/22 10:48:51;;;;;;;;;;;;;;;;;;5075647;28;47462;-77
2021/05/22 10:51:16;;;;;;;;;;;;;;;;;;5070437;28;44667;-77
2021/05/22 10:53:42;;;;;;;;;;;;;;;;;;5068738;28;46406;-77
2021/05/22 10:56:07;;;;;;;;;;;;;;;;;;5073824;28;48075;-77
2021/05/22 10:58:33;;;;;;;;;;;;;;;;;;5082309;28;48390;-77
2021/05/22 11:01:00;;;;;;;;;;;;;;;;;;5078608;28;44769;-77
2021/05/22 11:03:25;;;;;;;;;;;;;;;;;;5086138;27;45040;-78
2021/05/22 11:05:52;;;;;;;;;;;;;;;;;;5085937;28;45468;-77
2021/05/22 11:08:17;;;;;;;;;;;;;;;;;;5078071;28;45187;-78
2021/05/22 11:10:43;;;;;;;;;;;;;;;;;;5071617;28;44162;-78
2021/05/22 11:13:10;;;;;;;;;;;;;;;;;;5075900;28;43886;-77
2021/05/22 11:15:35;;;;;;;;;;;;;;;;;;5078196;28;48307;-76
2021/05/22 11:18:00;;;;;;;;;;;;;;;;;;5088592;28;48259;-76
2021/05/22 11:20:26;;;;;;;;;;;;;;;;;;5099848;28;32710;-76
2021/05/22 11:22:54;;;;;;;;;;;;;;;;;;5099519;28;32722;-75
2021/05/22 11:25:19;;;;;;;;;;;;;;;;;;5095065;28;33251;-76
2021/05/22 11:27:52;;;;;;;;;;;;;;;;;;5080592;28;45869;-74
2021/05/22 11:30:18;;;;;;;;;;;;;;;;;;5078403;28;32703;-75
2021/05/22 11:32:43;;;;;;;;;;;;;;;;;;5065777;28;46034;-75
2021/05/22 11:35:09;;;;;;;;;;;;;;;;;;5069393;28;45382;-75
2021/05/22 11:37:34;;;;;;;;;;;;;;;;;;5066971;28;47881;-77
2021/05/22 11:40:00;;;;;;;;;;;;;;;;;;5069830;28;46022;-75
2021/05/22 11:42:25;;;;;;;;;;;;;;;;;;5080160;28;52951;-75
2021/05/22 11:44:51;;;;;;;;;;;;;;;;;;5079892;28;32301;-75
2021/05/22 11:47:16;;;;;;;;;;;;;;;;;;5081265;28;48183;-75
2021/05/22 11:49:42;;;;;;;;;;;;;;;;;;5074209;28;46286;-75
2021/05/22 11:52:07;;;;;;;;;;;;;;;;;;5067677;28;47523;-75
2021/05/22 11:54:33;;;;;;;;;;;;;;;;;;5062985;28;47477;-75
2021/05/22 11:56:58;;;;;;;;;;;;;;;;;;5063885;28;49229;-74
2021/05/22 11:59:24;;;;;;;;;;;;;;;;;;5066816;28;46971;-75
2021/05/22 12:01:49;;;;;;;;;;;;;;;;;;5064396;28;46894;-74
2021/05/22 12:04:15;;;;;;;;;;;;;;;;;;5065745;28;48526;-75
2021/05/22 12:06:41;;;;;;;;;;;;;;;;;;5064039;28;50818;-75
2021/05/22 12:09:08;;;;;;;;;;;;;;;;;;5065881;28;47311;-75
2021/05/22 12:11:34;;;;;;;;;;;;;;;;;;5060369;28;48110;-75
2021/05/22 12:13:59;;;;;;;;;;;;;;;;;;5072752;27;47902;-75
2021/05/22 12:16:25;;;;;;;;;;;;;;;;;;5067624;28;49174;-75
2021/05/22 12:18:50;;;;;;;;;;;;;;;;;;5065394;28;47709;-75
2021/05/22 12:21:16;;;;;;;;;;;;;;;;;;5069886;28;44202;-75
2021/05/22 12:23:41;;;;;;;;;;;;;;;;;;5065476;28;44465;-75
2021/05/22 12:26:07;;;;;;;;;;;;;;;;;;5074302;28;47351;-75
2021/05/22 12:28:32;;;;;;;;;;;;;;;;;;5064460;28;47035;-75
2021/05/22 12:30:58;;;;;;;;;;;;;;;;;;5075196;28;45681;-75
2021/05/22 12:33:23;;;;;;;;;;;;;;;;;;5082168;27;49183;-77
2021/05/22 12:35:49;;;;;;;;;;;;;;;;;;5075151;28;47594;-76
2021/05/22 12:38:14;;;;;;;;;;;;;;;;;;5069393;28;47755;-75
2021/05/22 12:40:40;;;;;;;;;;;;;;;;;;5064576;28;47443;-77
2021/05/22 12:43:05;;;;;;;;;;;;;;;;;;5067371;28;51966;-78
2021/05/22 12:45:31;;;;;;;;;;;;;;;;;;5072409;28;49121;-75
2021/05/22 12:47:56;;;;;;;;;;;;;;;;;;5076763;28;47619;-76
2021/05/22 12:50:22;;;;;;;;;;;;;;;;;;5076339;27;53126;-81
2021/05/22 12:52:47;;;;;;;;;;;;;;;;;;5078496;28;48440;-77
2021/05/22 12:55:12;;;;;;;;;;;;;;;;;;5069353;28;50164;-76
2021/05/22 12:57:38;;;;;;;;;;;;;;;;;;5069813;28;44913;-76
2021/05/22 13:00:03;;;;;;;;;;;;;;;;;;5068888;28;46561;-78
2021/05/22 13:02:29;;;;;;;;;;;;;;;;;;5075230;28;47890;-77
2021/05/22 13:04:54;;;;;;;;;;;;;;;;;;5075952;28;47421;-76
2021/05/22 13:07:21;;;;;;;;;;;;;;;;;;5074531;28;45680;-76
2021/05/22 13:09:47;;;;;;;;;;;;;;;;;;5075953;28;44057;-78
2021/05/22 13:12:12;;;;;;;;;;;;;;;;;;5076483;27;49136;-75
2021/05/22 13:14:38;;;;;;;;;;;;;;;;;;5070460;27;47629;-77
2021/05/22 13:17:03;;;;;;;;;;;;;;;;;;5075586;28;44555;-77
2021/05/22 13:19:29;;;;;;;;;;;;;;;;;;5074760;27;42568;-75
2021/05/22 13:21:54;;;;;;;;;;;;;;;;;;5068910;28;47500;-80
2021/05/22 13:24:20;;;;;;;;;;;;;;;;;;5073348;28;50050;-75
2021/05/22 13:26:46;;;;;;;;;;;;;;;;;;5086691;28;46861;-78
2021/05/22 13:29:13;;;;;;;;;;;;;;;;;;5086704;28;45794;-78
2021/05/22 13:31:38;;;;;;;;;;;;;;;;;;5086579;28;46272;-76
2021/05/22 13:34:04;;;;;;;;;;;;;;;;;;5100213;28;33332;-75
2021/05/22 13:36:29;;;;;;;;;;;;;;;;;;5100120;28;32281;-78
2021/05/22 13:38:55;;;;;;;;;;;;;;;;;;5099307;28;31541;-77
2021/05/22 13:41:20;;;;;;;;;;;;;;;;;;5088572;28;32393;-77
2021/05/22 13:43:45;;;;;;;;;;;;;;;;;;5089055;28;33457;-78
2021/05/22 13:46:11;;;;;;;;;;;;;;;;;;5083999;28;52406;-78
2021/05/22 13:48:36;;;;;;;;;;;;;;;;;;5084543;28;45625;-74
2021/05/22 13:51:02;;;;;;;;;;;;;;;;;;5074858;28;50672;-75
2021/05/22 13:53:27;;;;;;;;;;;;;;;;;;5064974;28;49015;-77
2021/05/22 13:55:53;;;;;;;;;;;;;;;;;;5083845;28;47822;-79
2021/05/22 13:58:18;;;;;;;;;;;;;;;;;;5080707;28;45427;-77
2021/05/22 14:00:44;;;;;;;;;;;;;;;;;;5076920;28;46574;-77
2021/05/22 14:03:09;;;;;;;;;;;;;;;;;;5085066;28;46867;-77
2021/05/22 14:05:35;;;;;;;;;;;;;;;;;;5085464;28;44437;-76
2021/05/22 14:08:00;;;;;;;;;;;;;;;;;;5085258;28;45424;-78
2021/05/22 14:10:25;;;;;;;;;;;;;;;;;;5080251;28;47172;-79
2021/05/22 14:12:51;;;;;;;;;;;;;;;;;;5065353;28;51909;-76
2021/05/22 14:15:16;;;;;;;;;;;;;;;;;;5078691;28;48305;-78
2021/05/22 14:17:42;;;;;;;;;;;;;;;;;;5067220;28;44233;-76
2021/05/22 14:20:07;;;;;;;;;;;;;;;;;;5082250;28;48587;-77
2021/05/22 14:22:33;;;;;;;;;;;;;;;;;;5065387;28;49692;-77
2021/05/22 14:24:59;;;;;;;;;;;;;;;;;;5077748;28;42992;-77
2021/05/22 14:27:25;;;;;;;;;;;;;;;;;;5084146;28;45690;-78
2021/05/22 14:29:50;;;;;;;;;;;;;;;;;;5085334;28;46990;-78
2021/05/22 14:32:16;;;;;;;;;;;;;;;;;;5085758;28;47213;-78
2021/05/22 14:34:41;;;;;;;;;;;;;;;;;;5084114;28;46419;-78
2021/05/22 14:37:07;;;;;;;;;;;;;;;;;;5075443;28;45461;-78
2021/05/22 14:39:32;;;;;;;;;;;;;;;;;;5077045;28;45468;-77
2021/05/22 14:41:58;;;;;;;;;;;;;;;;;;5077030;28;44817;-78
2021/05/22 14:44:23;;;;;;;;;;;;;;;;;;5087768;28;44602;-77
2021/05/22 14:46:48;;;;;;;;;;;;;;;;;;5077338;28;29683;-74
2021/05/22 14:49:14;;;;;;;;;;;;;;;;;;5082141;28;48113;-75
2021/05/22 14:51:39;;;;;;;;;;;;;;;;;;5079503;28;46633;-77
2021/05/22 14:54:05;;;;;;;;;;;;;;;;;;5076472;28;45679;-77
2021/05/22 14:56:30;;;;;;;;;;;;;;;;;;5078639;28;44196;-77
2021/05/22 14:58:56;;;;;;;;;;;;;;;;;;5084402;28;49150;-78
2021/05/22 15:01:21;;;;;;;;;;;;;;;;;;5078707;28;47589;-75
2021/05/22 15:03:47;;;;;;;;;;;;;;;;;;5083527;28;45478;-77
2021/05/22 15:06:12;;;;;;;;;;;;;;;;;;5096846;28;45689;-75
2021/05/22 15:08:38;;;;;;;;;;;;;;;;;;5099978;28;33082;-76
2021/05/22 15:11:03;;;;;;;;;;;;;;;;;;5089907;28;33898;-76
2021/05/22 15:13:28;;;;;;;;;;;;;;;;;;5084634;28;32479;-76
2021/05/22 15:15:54;;;;;;;;;;;;;;;;;;5119241;28;31828;-76
2021/05/22 15:18:19;;;;;;;;;;;;;;;;;;5118572;28;32406;-74
2021/05/22 15:20:45;;;;;;;;;;;;;;;;;;5119331;28;32910;-76
2021/05/22 15:23:10;;;;;;;;;;;;;;;;;;5108609;28;45139;-77
2021/05/22 15:25:36;;;;;;;;;;;;;;;;;;5114339;27;31458;-78
